sensor_id;sensor_type;location;lat;lon;timestamp;P1;durP1;ratioP1;P2;durP2;ratioP2
20138;SDS011;10230;51.502;10.800;2022-07-17T00:00:36;5.03;;;1.53;;
20138;SDS011;10230;51.502;10.800;2022-07-17T00:03:05;3.30;;;1.60;;
20138;SDS011;10230;51.502;10.800;2022-07-17T00:05:31;2.43;;;1.07;;
20138;SDS011;10230;51.502;10.800;2022-07-17T00:07:57;5.37;;;1.20;;
20138;SDS011;10230;51.502;10.800;2022-07-17T00:10:23;3.83;;;1.00;;
20138;SDS011;10230;51.502;10.800;2022-07-17T00:12:49;2.00;;;0.93;;
20138;SDS011;10230;51.502;10.800;2022-07-17T00:15:15;6.53;;;1.90;;
20138;SDS011;10230;51.502;10.800;2022-07-17T00:17:41;6.03;;;1.70;;
20138;SDS011;10230;51.502;10.800;2022-07-17T00:20:07;5.77;;;2.33;;
20138;SDS011;10230;51.502;10.800;2022-07-17T00:22:34;3.07;;;1.60;;
20138;SDS011;10230;51.502;10.800;2022-07-17T00:25:00;7.07;;;1.67;;
20138;SDS011;10230;51.502;10.800;2022-07-17T00:27:27;4.13;;;1.47;;
20138;SDS011;10230;51.502;10.800;2022-07-17T00:29:53;3.40;;;1.27;;
20138;SDS011;10230;51.502;10.800;2022-07-17T00:32:19;7.70;;;1.47;;
20138;SDS011;10230;51.502;10.800;2022-07-17T00:34:45;2.43;;;1.20;;
20138;SDS011;10230;51.502;10.800;2022-07-17T00:37:11;3.93;;;1.57;;
20138;SDS011;10230;51.502;10.800;2022-07-17T00:39:37;4.30;;;1.27;;
20138;SDS011;10230;51.502;10.800;2022-07-17T00:42:03;4.80;;;1.57;;
20138;SDS011;10230;51.502;10.800;2022-07-17T00:44:29;6.27;;;1.60;;
20138;SDS011;10230;51.502;10.800;2022-07-17T00:46:55;6.60;;;2.90;;
20138;SDS011;10230;51.502;10.800;2022-07-17T00:49:21;6.80;;;2.47;;
20138;SDS011;10230;51.502;10.800;2022-07-17T00:51:47;5.40;;;3.83;;
20138;SDS011;10230;51.502;10.800;2022-07-17T00:54:13;7.30;;;2.50;;
20138;SDS011;10230;51.502;10.800;2022-07-17T00:56:40;5.53;;;2.37;;
20138;SDS011;10230;51.502;10.800;2022-07-17T00:59:08;6.53;;;2.30;;
20138;SDS011;10230;51.502;10.800;2022-07-17T01:01:34;3.97;;;2.30;;
20138;SDS011;10230;51.502;10.800;2022-07-17T01:04:01;6.93;;;3.03;;
20138;SDS011;10230;51.502;10.800;2022-07-17T01:06:27;3.87;;;2.50;;
20138;SDS011;10230;51.502;10.800;2022-07-17T01:08:53;5.13;;;2.30;;
20138;SDS011;10230;51.502;10.800;2022-07-17T01:11:19;5.17;;;2.70;;
20138;SDS011;10230;51.502;10.800;2022-07-17T01:13:45;4.83;;;1.97;;
20138;SDS011;10230;51.502;10.800;2022-07-17T01:16:11;5.77;;;2.47;;
20138;SDS011;10230;51.502;10.800;2022-07-17T01:18:37;2.97;;;2.10;;
20138;SDS011;10230;51.502;10.800;2022-07-17T01:21:07;6.03;;;2.73;;
20138;SDS011;10230;51.502;10.800;2022-07-17T01:23:33;4.23;;;2.00;;
20138;SDS011;10230;51.502;10.800;2022-07-17T01:25:59;3.70;;;1.93;;
20138;SDS011;10230;51.502;10.800;2022-07-17T01:28:25;4.97;;;2.57;;
20138;SDS011;10230;51.502;10.800;2022-07-17T01:30:51;7.37;;;2.50;;
20138;SDS011;10230;51.502;10.800;2022-07-17T01:33:18;5.47;;;2.40;;
20138;SDS011;10230;51.502;10.800;2022-07-17T01:35:44;3.53;;;1.83;;
20138;SDS011;10230;51.502;10.800;2022-07-17T01:38:10;5.07;;;1.93;;
20138;SDS011;10230;51.502;10.800;2022-07-17T01:40:36;4.23;;;2.30;;
20138;SDS011;10230;51.502;10.800;2022-07-17T01:43:03;4.00;;;1.80;;
20138;SDS011;10230;51.502;10.800;2022-07-17T01:45:29;3.67;;;1.90;;
20138;SDS011;10230;51.502;10.800;2022-07-17T01:47:55;4.73;;;2.37;;
20138;SDS011;10230;51.502;10.800;2022-07-17T01:50:21;5.83;;;2.17;;
20138;SDS011;10230;51.502;10.800;2022-07-17T01:52:47;5.30;;;2.60;;
20138;SDS011;10230;51.502;10.800;2022-07-17T01:55:14;5.27;;;2.60;;
20138;SDS011;10230;51.502;10.800;2022-07-17T01:57:40;6.43;;;2.80;;
20138;SDS011;10230;51.502;10.800;2022-07-17T02:00:08;5.73;;;2.50;;
20138;SDS011;10230;51.502;10.800;2022-07-17T02:02:34;4.80;;;2.10;;
20138;SDS011;10230;51.502;10.800;2022-07-17T02:05:00;5.37;;;1.90;;
20138;SDS011;10230;51.502;10.800;2022-07-17T02:07:26;4.07;;;1.73;;
20138;SDS011;10230;51.502;10.800;2022-07-17T02:09:52;6.10;;;2.47;;
20138;SDS011;10230;51.502;10.800;2022-07-17T02:12:18;6.83;;;3.10;;
20138;SDS011;10230;51.502;10.800;2022-07-17T02:14:44;4.53;;;2.10;;
20138;SDS011;10230;51.502;10.800;2022-07-17T02:17:10;3.00;;;1.90;;
20138;SDS011;10230;51.502;10.800;2022-07-17T02:19:36;3.73;;;1.80;;
20138;SDS011;10230;51.502;10.800;2022-07-17T02:22:02;4.53;;;1.53;;
20138;SDS011;10230;51.502;10.800;2022-07-17T02:24:28;2.57;;;1.03;;
20138;SDS011;10230;51.502;10.800;2022-07-17T02:26:54;2.27;;;1.17;;
20138;SDS011;10230;51.502;10.800;2022-07-17T02:29:20;4.40;;;1.40;;
20138;SDS011;10230;51.502;10.800;2022-07-17T02:31:47;4.80;;;1.27;;
20138;SDS011;10230;51.502;10.800;2022-07-17T02:34:13;1.73;;;1.13;;
20138;SDS011;10230;51.502;10.800;2022-07-17T02:36:39;5.67;;;1.30;;
20138;SDS011;10230;51.502;10.800;2022-07-17T02:39:05;2.67;;;1.00;;
20138;SDS011;10230;51.502;10.800;2022-07-17T02:41:31;2.70;;;1.20;;
20138;SDS011;10230;51.502;10.800;2022-07-17T02:43:57;3.03;;;1.70;;
20138;SDS011;10230;51.502;10.800;2022-07-17T02:46:23;5.30;;;1.40;;
20138;SDS011;10230;51.502;10.800;2022-07-17T02:48:49;4.23;;;1.40;;
20138;SDS011;10230;51.502;10.800;2022-07-17T02:51:15;3.27;;;1.00;;
20138;SDS011;10230;51.502;10.800;2022-07-17T02:53:41;3.57;;;1.27;;
20138;SDS011;10230;51.502;10.800;2022-07-17T02:56:07;2.67;;;0.80;;
20138;SDS011;10230;51.502;10.800;2022-07-17T02:58:33;3.70;;;1.30;;
20138;SDS011;10230;51.502;10.800;2022-07-17T03:00:59;6.00;;;1.23;;
20138;SDS011;10230;51.502;10.800;2022-07-17T03:03:25;5.30;;;1.47;;
20138;SDS011;10230;51.502;10.800;2022-07-17T03:05:51;3.70;;;1.20;;
20138;SDS011;10230;51.502;10.800;2022-07-17T03:08:17;2.23;;;0.90;;
20138;SDS011;10230;51.502;10.800;2022-07-17T03:10:43;2.57;;;1.20;;
20138;SDS011;10230;51.502;10.800;2022-07-17T03:13:09;4.70;;;1.50;;
20138;SDS011;10230;51.502;10.800;2022-07-17T03:15:35;2.40;;;1.30;;
20138;SDS011;10230;51.502;10.800;2022-07-17T03:18:01;6.17;;;1.33;;
20138;SDS011;10230;51.502;10.800;2022-07-17T03:20:27;4.87;;;1.50;;
20138;SDS011;10230;51.502;10.800;2022-07-17T03:22:53;5.67;;;1.60;;
20138;SDS011;10230;51.502;10.800;2022-07-17T03:25:19;7.10;;;1.47;;
20138;SDS011;10230;51.502;10.800;2022-07-17T03:27:45;2.60;;;1.13;;
20138;SDS011;10230;51.502;10.800;2022-07-17T03:30:11;3.27;;;1.10;;
20138;SDS011;10230;51.502;10.800;2022-07-17T03:32:37;3.03;;;1.00;;
20138;SDS011;10230;51.502;10.800;2022-07-17T03:35:03;6.47;;;1.10;;
20138;SDS011;10230;51.502;10.800;2022-07-17T03:37:29;3.37;;;1.20;;
20138;SDS011;10230;51.502;10.800;2022-07-17T03:39:56;5.00;;;1.20;;
20138;SDS011;10230;51.502;10.800;2022-07-17T03:42:22;5.50;;;1.30;;
20138;SDS011;10230;51.502;10.800;2022-07-17T03:44:48;4.83;;;1.30;;
20138;SDS011;10230;51.502;10.800;2022-07-17T03:47:14;2.50;;;1.23;;
20138;SDS011;10230;51.502;10.800;2022-07-17T03:49:40;5.13;;;1.57;;
20138;SDS011;10230;51.502;10.800;2022-07-17T03:52:06;4.00;;;1.33;;
20138;SDS011;10230;51.502;10.800;2022-07-17T03:54:32;4.50;;;1.40;;
20138;SDS011;10230;51.502;10.800;2022-07-17T03:56:58;2.73;;;1.13;;
20138;SDS011;10230;51.502;10.800;2022-07-17T03:59:24;3.53;;;1.20;;
20138;SDS011;10230;51.502;10.800;2022-07-17T04:01:50;1.87;;;0.90;;
20138;SDS011;10230;51.502;10.800;2022-07-17T04:04:16;1.83;;;1.07;;
20138;SDS011;10230;51.502;10.800;2022-07-17T04:06:42;2.27;;;1.10;;
20138;SDS011;10230;51.502;10.800;2022-07-17T04:09:08;3.57;;;1.03;;
20138;SDS011;10230;51.502;10.800;2022-07-17T04:11:34;3.13;;;1.20;;
20138;SDS011;10230;51.502;10.800;2022-07-17T04:14:00;3.40;;;1.47;;
20138;SDS011;10230;51.502;10.800;2022-07-17T04:16:26;2.13;;;1.13;;
20138;SDS011;10230;51.502;10.800;2022-07-17T04:18:52;2.93;;;1.13;;
20138;SDS011;10230;51.502;10.800;2022-07-17T04:21:18;2.73;;;1.30;;
20138;SDS011;10230;51.502;10.800;2022-07-17T04:23:44;4.23;;;1.50;;
20138;SDS011;10230;51.502;10.800;2022-07-17T04:26:10;2.70;;;1.00;;
20138;SDS011;10230;51.502;10.800;2022-07-17T04:28:37;5.50;;;1.50;;
20138;SDS011;10230;51.502;10.800;2022-07-17T04:31:03;2.73;;;1.10;;
20138;SDS011;10230;51.502;10.800;2022-07-17T04:33:30;2.50;;;1.03;;
20138;SDS011;10230;51.502;10.800;2022-07-17T04:35:56;3.77;;;1.17;;
20138;SDS011;10230;51.502;10.800;2022-07-17T04:38:22;3.67;;;1.00;;
20138;SDS011;10230;51.502;10.800;2022-07-17T04:40:48;3.27;;;1.00;;
20138;SDS011;10230;51.502;10.800;2022-07-17T04:43:14;2.70;;;1.13;;
20138;SDS011;10230;51.502;10.800;2022-07-17T04:45:40;3.40;;;1.30;;
20138;SDS011;10230;51.502;10.800;2022-07-17T04:48:06;4.50;;;1.30;;
20138;SDS011;10230;51.502;10.800;2022-07-17T04:50:32;3.20;;;1.33;;
20138;SDS011;10230;51.502;10.800;2022-07-17T04:52:58;3.03;;;1.10;;
20138;SDS011;10230;51.502;10.800;2022-07-17T04:55:25;4.90;;;1.50;;
20138;SDS011;10230;51.502;10.800;2022-07-17T04:57:51;3.70;;;1.30;;
20138;SDS011;10230;51.502;10.800;2022-07-17T05:00:19;7.43;;;2.50;;
20138;SDS011;10230;51.502;10.800;2022-07-17T05:02:45;2.93;;;1.30;;
20138;SDS011;10230;51.502;10.800;2022-07-17T05:05:11;2.23;;;1.30;;
20138;SDS011;10230;51.502;10.800;2022-07-17T05:07:38;4.00;;;1.20;;
20138;SDS011;10230;51.502;10.800;2022-07-17T05:10:05;4.10;;;1.47;;
20138;SDS011;10230;51.502;10.800;2022-07-17T05:12:31;3.07;;;1.17;;
20138;SDS011;10230;51.502;10.800;2022-07-17T05:14:57;4.07;;;1.50;;
20138;SDS011;10230;51.502;10.800;2022-07-17T05:17:23;4.17;;;1.30;;
20138;SDS011;10230;51.502;10.800;2022-07-17T05:19:50;3.93;;;1.60;;
20138;SDS011;10230;51.502;10.800;2022-07-17T05:22:16;4.10;;;1.90;;
20138;SDS011;10230;51.502;10.800;2022-07-17T05:24:42;3.20;;;1.33;;
20138;SDS011;10230;51.502;10.800;2022-07-17T05:27:08;2.53;;;0.93;;
20138;SDS011;10230;51.502;10.800;2022-07-17T05:29:34;3.40;;;0.97;;
20138;SDS011;10230;51.502;10.800;2022-07-17T05:32:00;2.27;;;1.13;;
20138;SDS011;10230;51.502;10.800;2022-07-17T05:34:26;4.47;;;1.27;;
20138;SDS011;10230;51.502;10.800;2022-07-17T05:36:52;2.33;;;1.17;;
20138;SDS011;10230;51.502;10.800;2022-07-17T05:39:18;7.70;;;1.80;;
20138;SDS011;10230;51.502;10.800;2022-07-17T05:41:44;4.03;;;1.37;;
20138;SDS011;10230;51.502;10.800;2022-07-17T05:44:10;4.00;;;1.20;;
20138;SDS011;10230;51.502;10.800;2022-07-17T05:46:36;5.03;;;1.40;;
20138;SDS011;10230;51.502;10.800;2022-07-17T05:49:02;3.70;;;1.20;;
20138;SDS011;10230;51.502;10.800;2022-07-17T05:51:28;2.47;;;1.10;;
20138;SDS011;10230;51.502;10.800;2022-07-17T05:53:54;4.00;;;1.00;;
20138;SDS011;10230;51.502;10.800;2022-07-17T05:56:20;3.67;;;1.10;;
20138;SDS011;10230;51.502;10.800;2022-07-17T05:58:47;3.73;;;1.57;;
20138;SDS011;10230;51.502;10.800;2022-07-17T06:01:13;2.53;;;1.10;;
20138;SDS011;10230;51.502;10.800;2022-07-17T06:03:39;3.17;;;1.00;;
20138;SDS011;10230;51.502;10.800;2022-07-17T06:06:06;3.40;;;1.20;;
20138;SDS011;10230;51.502;10.800;2022-07-17T06:08:32;3.73;;;1.20;;
20138;SDS011;10230;51.502;10.800;2022-07-17T06:10:58;5.93;;;1.40;;
20138;SDS011;10230;51.502;10.800;2022-07-17T06:13:24;4.85;;;1.40;;
20138;SDS011;10230;51.502;10.800;2022-07-17T06:15:50;6.20;;;1.20;;
20138;SDS011;10230;51.502;10.800;2022-07-17T06:18:16;3.28;;;1.27;;
20138;SDS011;10230;51.502;10.800;2022-07-17T06:20:42;3.78;;;1.30;;
20138;SDS011;10230;51.502;10.800;2022-07-17T06:23:08;3.35;;;1.02;;
20138;SDS011;10230;51.502;10.800;2022-07-17T06:25:34;2.95;;;1.20;;
20138;SDS011;10230;51.502;10.800;2022-07-17T06:28:00;3.97;;;1.23;;
20138;SDS011;10230;51.502;10.800;2022-07-17T06:30:26;3.45;;;1.60;;
20138;SDS011;10230;51.502;10.800;2022-07-17T06:32:52;4.32;;;1.15;;
20138;SDS011;10230;51.502;10.800;2022-07-17T06:35:18;3.75;;;1.10;;
20138;SDS011;10230;51.502;10.800;2022-07-17T06:37:44;3.38;;;1.00;;
20138;SDS011;10230;51.502;10.800;2022-07-17T06:40:10;4.57;;;0.98;;
20138;SDS011;10230;51.502;10.800;2022-07-17T06:42:36;2.45;;;1.00;;
20138;SDS011;10230;51.502;10.800;2022-07-17T06:45:02;4.72;;;1.40;;
20138;SDS011;10230;51.502;10.800;2022-07-17T06:47:28;3.10;;;1.05;;
20138;SDS011;10230;51.502;10.800;2022-07-17T06:49:54;5.43;;;1.90;;
20138;SDS011;10230;51.502;10.800;2022-07-17T06:52:20;2.92;;;1.17;;
20138;SDS011;10230;51.502;10.800;2022-07-17T06:54:46;5.82;;;1.33;;
20138;SDS011;10230;51.502;10.800;2022-07-17T06:57:13;4.57;;;1.60;;
20138;SDS011;10230;51.502;10.800;2022-07-17T06:59:40;3.38;;;1.02;;
20138;SDS011;10230;51.502;10.800;2022-07-17T07:02:06;3.25;;;1.50;;
20138;SDS011;10230;51.502;10.800;2022-07-17T07:04:32;4.15;;;1.40;;
20138;SDS011;10230;51.502;10.800;2022-07-17T07:06:58;3.40;;;1.17;;
20138;SDS011;10230;51.502;10.800;2022-07-17T07:09:24;3.63;;;1.23;;
20138;SDS011;10230;51.502;10.800;2022-07-17T07:11:50;4.65;;;1.40;;
20138;SDS011;10230;51.502;10.800;2022-07-17T07:14:16;5.38;;;1.77;;
20138;SDS011;10230;51.502;10.800;2022-07-17T07:16:43;4.10;;;1.60;;
20138;SDS011;10230;51.502;10.800;2022-07-17T07:19:09;4.22;;;1.58;;
20138;SDS011;10230;51.502;10.800;2022-07-17T07:21:35;4.53;;;1.20;;
20138;SDS011;10230;51.502;10.800;2022-07-17T07:24:01;4.30;;;1.58;;
20138;SDS011;10230;51.502;10.800;2022-07-17T07:26:27;2.78;;;0.98;;
20138;SDS011;10230;51.502;10.800;2022-07-17T07:28:53;5.25;;;2.30;;
20138;SDS011;10230;51.502;10.800;2022-07-17T07:31:19;5.75;;;1.98;;
20138;SDS011;10230;51.502;10.800;2022-07-17T07:33:45;4.38;;;1.77;;
20138;SDS011;10230;51.502;10.800;2022-07-17T07:36:11;5.93;;;1.88;;
20138;SDS011;10230;51.502;10.800;2022-07-17T07:38:37;6.03;;;2.13;;
20138;SDS011;10230;51.502;10.800;2022-07-17T07:41:03;3.17;;;1.85;;
20138;SDS011;10230;51.502;10.800;2022-07-17T07:43:30;5.55;;;1.55;;
20138;SDS011;10230;51.502;10.800;2022-07-17T07:45:56;5.25;;;1.50;;
20138;SDS011;10230;51.502;10.800;2022-07-17T07:48:22;6.60;;;1.60;;
20138;SDS011;10230;51.502;10.800;2022-07-17T07:50:48;3.17;;;1.30;;
20138;SDS011;10230;51.502;10.800;2022-07-17T07:53:15;5.05;;;1.30;;
20138;SDS011;10230;51.502;10.800;2022-07-17T07:55:41;3.85;;;1.55;;
20138;SDS011;10230;51.502;10.800;2022-07-17T07:58:08;2.17;;;1.00;;
20138;SDS011;10230;51.502;10.800;2022-07-17T08:00:35;3.53;;;1.65;;
20138;SDS011;10230;51.502;10.800;2022-07-17T08:03:02;4.93;;;2.05;;
20138;SDS011;10230;51.502;10.800;2022-07-17T08:05:28;4.65;;;1.30;;
20138;SDS011;10230;51.502;10.800;2022-07-17T08:07:54;4.55;;;1.40;;
20138;SDS011;10230;51.502;10.800;2022-07-17T08:10:20;4.18;;;1.50;;
20138;SDS011;10230;51.502;10.800;2022-07-17T08:12:46;1.92;;;1.20;;
20138;SDS011;10230;51.502;10.800;2022-07-17T08:15:13;4.43;;;1.17;;
20138;SDS011;10230;51.502;10.800;2022-07-17T08:17:40;3.17;;;1.10;;
20138;SDS011;10230;51.502;10.800;2022-07-17T08:20:06;4.88;;;2.00;;
20138;SDS011;10230;51.502;10.800;2022-07-17T08:22:32;3.20;;;1.40;;
20138;SDS011;10230;51.502;10.800;2022-07-17T08:24:58;3.28;;;1.20;;
20138;SDS011;10230;51.502;10.800;2022-07-17T08:27:23;3.13;;;1.02;;
20138;SDS011;10230;51.502;10.800;2022-07-17T08:29:49;3.53;;;1.52;;
20138;SDS011;10230;51.502;10.800;2022-07-17T08:32:15;3.55;;;1.50;;
20138;SDS011;10230;51.502;10.800;2022-07-17T08:34:41;3.70;;;1.33;;
20138;SDS011;10230;51.502;10.800;2022-07-17T08:37:07;5.20;;;1.20;;
20138;SDS011;10230;51.502;10.800;2022-07-17T08:39:33;2.10;;;1.00;;
20138;SDS011;10230;51.502;10.800;2022-07-17T08:42:01;3.05;;;0.90;;
20138;SDS011;10230;51.502;10.800;2022-07-17T08:49:20;3.55;;;1.02;;
20138;SDS011;10230;51.502;10.800;2022-07-17T08:51:47;3.83;;;1.63;;
20138;SDS011;10230;51.502;10.800;2022-07-17T08:54:13;3.15;;;1.48;;
20138;SDS011;10230;51.502;10.800;2022-07-17T08:56:40;2.35;;;1.60;;
20138;SDS011;10230;51.502;10.800;2022-07-17T08:59:05;1.92;;;1.30;;
20138;SDS011;10230;51.502;10.800;2022-07-17T09:01:31;3.15;;;1.35;;
20138;SDS011;10230;51.502;10.800;2022-07-17T09:03:58;3.13;;;1.08;;
20138;SDS011;10230;51.502;10.800;2022-07-17T09:06:31;2.30;;;1.00;;
20138;SDS011;10230;51.502;10.800;2022-07-17T09:11:40;2.00;;;1.10;;
20138;SDS011;10230;51.502;10.800;2022-07-17T09:14:17;1.83;;;1.00;;
20138;SDS011;10230;51.502;10.800;2022-07-17T09:17:03;2.65;;;1.40;;
20138;SDS011;10230;51.502;10.800;2022-07-17T09:19:30;1.92;;;1.05;;
20138;SDS011;10230;51.502;10.800;2022-07-17T09:22:05;2.00;;;1.25;;
20138;SDS011;10230;51.502;10.800;2022-07-17T09:27:10;4.53;;;1.27;;
20138;SDS011;10230;51.502;10.800;2022-07-17T09:32:27;2.67;;;1.13;;
20138;SDS011;10230;51.502;10.800;2022-07-17T09:34:59;3.35;;;1.23;;
20138;SDS011;10230;51.502;10.800;2022-07-17T09:37:25;2.70;;;1.15;;
20138;SDS011;10230;51.502;10.800;2022-07-17T09:39:54;1.83;;;1.10;;
20138;SDS011;10230;51.502;10.800;2022-07-17T09:44:59;1.48;;;1.27;;
20138;SDS011;10230;51.502;10.800;2022-07-17T09:47:28;1.70;;;1.05;;
20138;SDS011;10230;51.502;10.800;2022-07-17T09:49:55;3.88;;;1.15;;
20138;SDS011;10230;51.502;10.800;2022-07-17T09:52:29;3.55;;;1.35;;
20138;SDS011;10230;51.502;10.800;2022-07-17T09:54:56;3.22;;;1.30;;
20138;SDS011;10230;51.502;10.800;2022-07-17T09:57:24;1.27;;;1.10;;
20138;SDS011;10230;51.502;10.800;2022-07-17T09:59:54;2.55;;;1.00;;
20138;SDS011;10230;51.502;10.800;2022-07-17T10:02:21;2.53;;;1.17;;
20138;SDS011;10230;51.502;10.800;2022-07-17T10:04:48;2.60;;;1.00;;
20138;SDS011;10230;51.502;10.800;2022-07-17T10:07:14;2.92;;;1.70;;
20138;SDS011;10230;51.502;10.800;2022-07-17T10:09:40;1.80;;;1.00;;
20138;SDS011;10230;51.502;10.800;2022-07-17T10:12:06;2.10;;;1.00;;
20138;SDS011;10230;51.502;10.800;2022-07-17T10:14:34;1.42;;;1.00;;
20138;SDS011;10230;51.502;10.800;2022-07-17T10:17:10;3.05;;;1.27;;
20138;SDS011;10230;51.502;10.800;2022-07-17T10:19:56;2.28;;;1.50;;
20138;SDS011;10230;51.502;10.800;2022-07-17T10:22:22;1.65;;;0.90;;
20138;SDS011;10230;51.502;10.800;2022-07-17T10:24:53;2.05;;;1.17;;
20138;SDS011;10230;51.502;10.800;2022-07-17T10:27:21;1.80;;;1.30;;
20138;SDS011;10230;51.502;10.800;2022-07-17T10:29:58;3.28;;;1.58;;
20138;SDS011;10230;51.502;10.800;2022-07-17T10:32:31;1.63;;;1.00;;
20138;SDS011;10230;51.502;10.800;2022-07-17T10:34:59;2.15;;;1.27;;
20138;SDS011;10230;51.502;10.800;2022-07-17T10:37:27;1.55;;;1.10;;
20138;SDS011;10230;51.502;10.800;2022-07-17T10:39:58;1.75;;;1.20;;
20138;SDS011;10230;51.502;10.800;2022-07-17T10:45:09;1.38;;;1.00;;
20138;SDS011;10230;51.502;10.800;2022-07-17T10:50:19;1.27;;;1.02;;
20138;SDS011;10230;51.502;10.800;2022-07-17T10:53:25;2.33;;;2.13;;
20138;SDS011;10230;51.502;10.800;2022-07-17T10:55:50;1.33;;;0.88;;
20138;SDS011;10230;51.502;10.800;2022-07-17T10:58:27;1.67;;;1.00;;
20138;SDS011;10230;51.502;10.800;2022-07-17T11:01:05;1.98;;;1.02;;
20138;SDS011;10230;51.502;10.800;2022-07-17T11:03:36;1.40;;;1.00;;
20138;SDS011;10230;51.502;10.800;2022-07-17T11:06:11;1.60;;;0.85;;
20138;SDS011;10230;51.502;10.800;2022-07-17T11:08:49;2.30;;;1.33;;
20138;SDS011;10230;51.502;10.800;2022-07-17T11:11:15;1.42;;;1.10;;
20138;SDS011;10230;51.502;10.800;2022-07-17T11:13:42;1.70;;;1.20;;
20138;SDS011;10230;51.502;10.800;2022-07-17T11:16:08;1.60;;;1.27;;
20138;SDS011;10230;51.502;10.800;2022-07-17T11:18:34;1.65;;;1.10;;
20138;SDS011;10230;51.502;10.800;2022-07-17T11:21:02;1.67;;;0.98;;
20138;SDS011;10230;51.502;10.800;2022-07-17T11:23:33;2.55;;;1.20;;
20138;SDS011;10230;51.502;10.800;2022-07-17T11:26:03;2.25;;;1.30;;
20138;SDS011;10230;51.502;10.800;2022-07-17T11:28:34;1.92;;;1.15;;
20138;SDS011;10230;51.502;10.800;2022-07-17T11:31:01;0.98;;;0.73;;
20138;SDS011;10230;51.502;10.800;2022-07-17T11:33:28;2.10;;;1.13;;
20138;SDS011;10230;51.502;10.800;2022-07-17T11:35:54;2.20;;;0.93;;
20138;SDS011;10230;51.502;10.800;2022-07-17T11:38:26;2.03;;;1.05;;
20138;SDS011;10230;51.502;10.800;2022-07-17T11:40:53;1.13;;;0.90;;
20138;SDS011;10230;51.502;10.800;2022-07-17T11:43:20;1.95;;;1.30;;
20138;SDS011;10230;51.502;10.800;2022-07-17T11:45:45;2.47;;;1.00;;
20138;SDS011;10230;51.502;10.800;2022-07-17T11:48:12;2.05;;;0.90;;
20138;SDS011;10230;51.502;10.800;2022-07-17T11:50:38;2.22;;;0.98;;
20138;SDS011;10230;51.502;10.800;2022-07-17T11:53:05;2.53;;;1.10;;
20138;SDS011;10230;51.502;10.800;2022-07-17T11:55:38;1.83;;;0.85;;
20138;SDS011;10230;51.502;10.800;2022-07-17T11:58:04;1.45;;;0.90;;
20138;SDS011;10230;51.502;10.800;2022-07-17T12:00:31;1.60;;;0.80;;
20138;SDS011;10230;51.502;10.800;2022-07-17T12:03:00;1.45;;;0.80;;
20138;SDS011;10230;51.502;10.800;2022-07-17T12:05:27;1.85;;;0.75;;
20138;SDS011;10230;51.502;10.800;2022-07-17T12:07:53;3.97;;;1.02;;
20138;SDS011;10230;51.502;10.800;2022-07-17T12:10:20;1.52;;;0.80;;
20138;SDS011;10230;51.502;10.800;2022-07-17T12:12:59;2.58;;;0.88;;
20138;SDS011;10230;51.502;10.800;2022-07-17T12:42:31;4.32;;;0.90;;
20138;SDS011;10230;51.502;10.800;2022-07-17T12:44:57;1.80;;;0.82;;
20138;SDS011;10230;51.502;10.800;2022-07-17T12:47:23;2.05;;;0.95;;
20138;SDS011;10230;51.502;10.800;2022-07-17T12:49:48;2.38;;;1.30;;
20138;SDS011;10230;51.502;10.800;2022-07-17T18:57:26;4.65;;;1.70;;
20138;SDS011;10230;51.502;10.800;2022-07-17T18:59:52;4.07;;;1.45;;
20138;SDS011;10230;51.502;10.800;2022-07-17T19:02:18;1.75;;;1.00;;
20138;SDS011;10230;51.502;10.800;2022-07-17T19:04:47;2.60;;;1.63;;
20138;SDS011;10230;51.502;10.800;2022-07-17T19:07:13;2.30;;;0.95;;
20138;SDS011;10230;51.502;10.800;2022-07-17T19:09:39;2.70;;;1.00;;
20138;SDS011;10230;51.502;10.800;2022-07-17T19:12:08;2.33;;;1.38;;
20138;SDS011;10230;51.502;10.800;2022-07-17T19:14:34;1.90;;;1.02;;
20138;SDS011;10230;51.502;10.800;2022-07-17T19:17:00;2.40;;;1.05;;
20138;SDS011;10230;51.502;10.800;2022-07-17T19:19:26;2.35;;;1.20;;
20138;SDS011;10230;51.502;10.800;2022-07-17T19:21:52;1.83;;;1.20;;
20138;SDS011;10230;51.502;10.800;2022-07-17T19:24:18;3.35;;;1.67;;
20138;SDS011;10230;51.502;10.800;2022-07-17T19:26:44;3.58;;;1.35;;
20138;SDS011;10230;51.502;10.800;2022-07-17T19:29:10;3.80;;;1.50;;
20138;SDS011;10230;51.502;10.800;2022-07-17T19:31:36;2.38;;;1.25;;
20138;SDS011;10230;51.502;10.800;2022-07-17T19:34:02;1.58;;;0.98;;
20138;SDS011;10230;51.502;10.800;2022-07-17T19:36:28;3.95;;;1.40;;
20138;SDS011;10230;51.502;10.800;2022-07-17T19:38:55;3.38;;;1.55;;
20138;SDS011;10230;51.502;10.800;2022-07-17T19:41:21;3.88;;;1.38;;
20138;SDS011;10230;51.502;10.800;2022-07-17T19:43:47;3.67;;;1.20;;
20138;SDS011;10230;51.502;10.800;2022-07-17T19:46:13;2.63;;;1.30;;
20138;SDS011;10230;51.502;10.800;2022-07-17T19:48:39;2.85;;;1.67;;
20138;SDS011;10230;51.502;10.800;2022-07-17T19:51:05;2.92;;;1.70;;
20138;SDS011;10230;51.502;10.800;2022-07-17T19:53:31;3.95;;;1.60;;
20138;SDS011;10230;51.502;10.800;2022-07-17T19:55:58;6.00;;;2.08;;
20138;SDS011;10230;51.502;10.800;2022-07-17T19:58:37;5.05;;;1.38;;
20138;SDS011;10230;51.502;10.800;2022-07-17T20:01:03;3.10;;;1.02;;
20138;SDS011;10230;51.502;10.800;2022-07-17T20:03:29;2.40;;;1.30;;
20138;SDS011;10230;51.502;10.800;2022-07-17T20:05:55;2.17;;;1.08;;
20138;SDS011;10230;51.502;10.800;2022-07-17T20:08:22;2.15;;;0.95;;
20138;SDS011;10230;51.502;10.800;2022-07-17T20:10:48;2.10;;;1.08;;
20138;SDS011;10230;51.502;10.800;2022-07-17T20:13:14;2.40;;;1.15;;
20138;SDS011;10230;51.502;10.800;2022-07-17T20:15:40;2.42;;;1.17;;
20138;SDS011;10230;51.502;10.800;2022-07-17T20:18:07;4.18;;;1.20;;
20138;SDS011;10230;51.502;10.800;2022-07-17T20:20:33;2.42;;;0.88;;
20138;SDS011;10230;51.502;10.800;2022-07-17T20:22:59;5.43;;;1.33;;
20138;SDS011;10230;51.502;10.800;2022-07-17T20:25:25;2.88;;;1.25;;
20138;SDS011;10230;51.502;10.800;2022-07-17T20:27:51;2.55;;;1.33;;
20138;SDS011;10230;51.502;10.800;2022-07-17T20:30:17;2.92;;;1.30;;
20138;SDS011;10230;51.502;10.800;2022-07-17T20:32:43;3.13;;;1.15;;
20138;SDS011;10230;51.502;10.800;2022-07-17T20:35:09;2.28;;;1.30;;
20138;SDS011;10230;51.502;10.800;2022-07-17T20:37:35;3.28;;;1.38;;
20138;SDS011;10230;51.502;10.800;2022-07-17T20:40:01;4.40;;;1.65;;
20138;SDS011;10230;51.502;10.800;2022-07-17T20:42:28;1.73;;;1.20;;
20138;SDS011;10230;51.502;10.800;2022-07-17T20:44:54;4.07;;;1.20;;
20138;SDS011;10230;51.502;10.800;2022-07-17T20:47:20;4.15;;;1.30;;
20138;SDS011;10230;51.502;10.800;2022-07-17T20:49:46;3.10;;;1.33;;
20138;SDS011;10230;51.502;10.800;2022-07-17T20:52:12;3.17;;;1.40;;
20138;SDS011;10230;51.502;10.800;2022-07-17T20:54:38;2.90;;;1.70;;
20138;SDS011;10230;51.502;10.800;2022-07-17T20:57:04;5.07;;;1.65;;
20138;SDS011;10230;51.502;10.800;2022-07-17T20:59:30;11.38;;;1.40;;
20138;SDS011;10230;51.502;10.800;2022-07-17T21:01:56;3.78;;;1.40;;
20138;SDS011;10230;51.502;10.800;2022-07-17T21:04:23;3.30;;;1.33;;
20138;SDS011;10230;51.502;10.800;2022-07-17T21:06:49;7.40;;;1.40;;
20138;SDS011;10230;51.502;10.800;2022-07-17T21:09:15;4.03;;;1.40;;
20138;SDS011;10230;51.502;10.800;2022-07-17T21:11:41;1.85;;;1.33;;
20138;SDS011;10230;51.502;10.800;2022-07-17T21:14:07;2.85;;;1.10;;
20138;SDS011;10230;51.502;10.800;2022-07-17T21:16:34;4.10;;;1.55;;
20138;SDS011;10230;51.502;10.800;2022-07-17T21:19:00;5.22;;;1.60;;
20138;SDS011;10230;51.502;10.800;2022-07-17T21:21:26;9.15;;;1.80;;
20138;SDS011;10230;51.502;10.800;2022-07-17T21:23:52;11.23;;;1.90;;